Bei Facebook empfehlenBei Twitter postenGoogle plusPinterest

Das Wetter im Erzgebirge am 13.10.2016

Wetter und Klima am 13.10.2016 Holzhau im Erzgebirge (630m ü.NN)
Letzte gemessene Temperatur und Uhrzeit der Messung23:45:00 Uhr3.50 °C
Temperatur (Maximum / Höchstwert) und Uhrzeit der Messung13:15:00 Uhr6.70 °C
Temperatur (Minimum / Tiefstwert) und Uhrzeit der Messung23:45:003.50 °C
Errechneter Absolutwert der Temperaturschwankungen zwischen Tmin und Tmax des Tages3.20 K
Errechnete Tagesmitteltemperatur4.63125 °C
Gesamt - Niederschlag des Tages (in flüssiger Form)1.03 Liter / m²
Luftdruck (Maximum / Höchstwert) und Zeitpunkt der Messung10:15:00 Uhr1015.90 hPa
Luftdruck (Minimum / Tiefstwert) und Zeitpunkt der Messung23:45:00 Uhr1013.50 hPa
Errechneter Absolutwert der Luftdruckschwankungen des Tages2.40 hPa
Höchste gemessene Windgeschwindigkeit und Uhrzeit der Messung23:45:00 Uhr0.00 km/h
Errechnete Windhäufigkeit in Relation zu den Messwerten des Tages0.00000 %
Niedrigste Windkühle (Windchill) und Zeitpunkt der Messung23:45:00 Uhr3.50 °C
Taupunkt (Maximum / Höchstwert) und Uhrzeit der Messung13:15:00 Uhr6.00 °C
Taupunkt (Minimum / Tiefstwert) und Uhrzeit der Messung23:45:002.50 °C
Anzahl der automatisch eingelesenen Messwerte 96

Detaillierte Wetter- und Klima- Messwerte für den 13.10.2016 in Holzhau im Erzgebirge (630m ü.NN)
ZeitTemperaturLuftdruckRel. LuftfeuchteWindWindrichtungWindchillTaupunktNiederschlag l/m²
23:45:003.50 °C1013.50 hPa93.00 %2.50 °C1.03
23:30:003.60 °C1013.60 hPa93.00 %2.60 °C1.03
23:15:003.60 °C1013.80 hPa93.00 %2.60 °C1.03
23:00:003.70 °C1013.80 hPa93.00 %2.70 °C1.03
22:45:003.80 °C1013.70 hPa93.00 %2.80 °C1.03
22:30:003.80 °C1013.50 hPa93.00 %2.80 °C1.03
22:15:003.80 °C1013.60 hPa93.00 %2.80 °C1.03
22:00:003.80 °C1013.80 hPa93.00 %2.80 °C1.03
21:45:003.80 °C1013.80 hPa93.00 %2.80 °C1.03
21:30:003.80 °C1013.90 hPa93.00 %2.80 °C1.03
21:15:003.90 °C1014.00 hPa93.00 %2.90 °C1.03
21:00:003.90 °C1014.30 hPa93.00 %2.90 °C1.03
20:45:004.10 °C1014.40 hPa93.00 %3.10 °C1.03
20:30:004.10 °C1014.30 hPa93.00 %3.10 °C1.03
20:15:004.20 °C1014.40 hPa93.00 %3.20 °C1.03
20:00:004.20 °C1014.40 hPa93.00 %3.20 °C1.03
19:45:004.30 °C1014.10 hPa93.00 %3.30 °C1.03
19:30:004.30 °C1014.10 hPa93.00 %3.30 °C1.03
19:15:004.40 °C1014.30 hPa93.00 %3.40 °C1.03
19:00:004.40 °C1014.10 hPa93.00 %3.40 °C1.03
18:45:004.50 °C1014.20 hPa93.00 %3.50 °C1.03
18:30:004.60 °C1014.10 hPa93.00 %3.60 °C1.03
18:15:004.70 °C1014.10 hPa93.00 %3.70 °C1.03
18:00:004.80 °C1014.20 hPa93.00 %3.80 °C1.03
17:45:004.90 °C1014.30 hPa93.00 %3.90 °C1.03
17:30:004.90 °C1014.30 hPa93.00 %3.90 °C1.03
17:15:005.10 °C1014.40 hPa93.00 %4.10 °C1.03
17:00:004.90 °C1014.40 hPa93.00 %3.90 °C1.03
16:45:005.00 °C1014.50 hPa93.00 %4.00 °C1.03
16:30:005.10 °C1014.70 hPa93.00 %4.10 °C1.03
16:15:005.10 °C1014.70 hPa93.00 %4.10 °C1.03
16:00:005.30 °C1014.50 hPa93.00 %4.30 °C1.03
15:45:005.50 °C1014.60 hPa93.00 %4.50 °C1.03
15:30:005.80 °C1014.50 hPa93.00 %4.80 °C1.03
15:15:005.90 °C1014.50 hPa93.00 %4.90 °C1.03
15:00:006.40 °C1014.60 hPa93.00 %5.40 °C1.03
14:45:006.60 °C1014.60 hPa94.00 %5.70 °C1.03
14:30:006.40 °C1014.80 hPa94.00 %5.50 °C1.03
14:15:006.60 °C1014.80 hPa94.00 %5.70 °C1.03
14:00:006.50 °C1014.80 hPa94.00 %5.60 °C1.03
13:45:006.20 °C1014.80 hPa94.00 %5.30 °C1.03
13:30:006.40 °C1015.00 hPa95.00 %5.70 °C1.03
13:15:006.70 °C1014.80 hPa95.00 %6.00 °C1.03
13:00:006.50 °C1015.10 hPa95.00 %5.80 °C1.03
12:45:006.30 °C1015.20 hPa95.00 %5.60 °C1.03
12:30:005.80 °C1015.20 hPa95.00 %5.10 °C1.03
12:15:005.60 °C1015.30 hPa95.00 %4.90 °C1.03
12:00:005.80 °C1015.40 hPa95.00 %5.10 °C1.03
11:45:006.10 °C1015.40 hPa95.00 %5.40 °C1.03
11:30:006.20 °C1015.60 hPa96.00 %5.60 °C1.03
11:15:005.90 °C1015.60 hPa96.00 %5.30 °C1.03
11:00:005.60 °C1015.50 hPa96.00 %5.00 °C1.03
10:45:005.60 °C1015.70 hPa96.00 %5.00 °C1.03
10:30:005.50 °C1015.70 hPa96.00 %4.90 °C1.03
10:15:005.50 °C1015.90 hPa96.00 %4.90 °C1.03
10:00:005.30 °C1015.80 hPa96.00 %4.70 °C1.03
09:45:005.30 °C1015.80 hPa96.00 %4.70 °C1.03
09:30:005.00 °C1015.60 hPa96.00 %4.40 °C1.03
09:15:004.50 °C1015.40 hPa96.00 %3.90 °C1.03
09:00:004.30 °C1015.50 hPa96.00 %3.70 °C1.03
08:45:004.10 °C1015.60 hPa96.00 %3.50 °C1.03
08:30:004.10 °C1015.40 hPa96.00 %3.50 °C1.03
08:15:003.90 °C1015.40 hPa96.00 %3.30 °C1.03
08:00:003.90 °C1015.30 hPa96.00 %3.30 °C1.03
07:45:003.80 °C1015.30 hPa96.00 %3.20 °C1.03
07:30:003.80 °C1015.40 hPa95.00 %3.10 °C1.03
07:15:003.90 °C1015.20 hPa96.00 %3.30 °C1.03
07:00:003.90 °C1015.10 hPa95.00 %3.20 °C1.03
06:45:004.00 °C1015.10 hPa95.00 %3.30 °C1.03
06:30:004.00 °C1015.10 hPa95.00 %3.30 °C1.03
06:15:003.90 °C1015.00 hPa95.00 %3.20 °C0.51
06:00:003.90 °C1015.10 hPa95.00 %3.20 °C0.51
05:45:003.90 °C1015.10 hPa95.00 %3.20 °C0.51
05:30:003.90 °C1015.00 hPa95.00 %3.20 °C0.51
05:15:003.90 °C1015.00 hPa95.00 %3.20 °C0.51
05:00:003.90 °C1015.00 hPa95.00 %3.20 °C0.51
04:45:003.90 °C1015.00 hPa95.00 %3.20 °C0.51
04:30:003.90 °C1015.00 hPa95.00 %3.20 °C0.51
04:15:004.10 °C1015.00 hPa95.00 %3.40 °C0.51
04:00:004.10 °C1015.00 hPa95.00 %3.40 °C0.51
03:45:004.10 °C1015.00 hPa95.00 %3.40 °C0.51
03:30:004.10 °C1015.10 hPa95.00 %3.40 °C0.51
03:15:004.10 °C1015.10 hPa95.00 %3.40 °C0.51
03:00:004.10 °C1015.10 hPa95.00 %3.40 °C 
02:45:004.10 °C1015.10 hPa95.00 %3.40 °C 
02:30:004.10 °C1015.20 hPa95.00 %3.40 °C 
02:15:004.10 °C1015.10 hPa95.00 %3.40 °C 
02:00:004.10 °C1015.10 hPa95.00 %3.40 °C 
01:45:004.00 °C1015.10 hPa95.00 %3.30 °C 
01:30:003.90 °C1015.20 hPa95.00 %3.20 °C 
01:15:003.90 °C1015.20 hPa95.00 %3.20 °C 
01:00:003.90 °C1015.30 hPa95.00 %3.20 °C 
00:45:003.90 °C1015.30 hPa95.00 %3.20 °C 
00:30:003.90 °C1015.20 hPa95.00 %3.20 °C 
00:15:003.90 °C1015.30 hPa95.00 %3.20 °C 
00:00:003.90 °C1015.40 hPa95.00 %3.20 °C 

Permanenter Link zu dieser Seite: Wetter im Erzgebirge am 13.10.2016
Performance-Info: Die Erstellung der Seite / Statistik(en) / Tabelle(n) erforderte 5 Datenbankserver-Abfrage(n) und dauerte 100 Millisekunden. (Dieser Messwert ist von der Gesamt-Auslastung des Servers abhängig.)
Erzgebirge - Wetter | Erzgebirge - Wetter (Mobilgeräte) | Komplette Klimadatenbank